Time;durP1;ratioP1;P1;durP2;ratioP2;P2;SDS_P1;SDS_P2;PMS_P1;PMS_P2;Temp;Humidity;BMP_temperature;BMP_pressure;BME280_temperature;BME280_humidity;BME280_pressure;Samples;Min_cycle;Max_cycle;Signal;HPM_P1;HPM_P2
2022/01/24 00:01:43;;;;;;;9.88;5.18;;;;;;;-6.83;100.00;95555.66;5063617;28;20055;-47
2022/01/24 00:04:10;;;;;;;13.23;5.13;;;;;;;-6.89;100.00;95561.16;5059826;28;20537;-47
2022/01/24 00:06:37;;;;;;;7.40;5.60;;;;;;;-6.87;100.00;95564.38;5061830;28;20062;-47
2022/01/24 00:09:06;;;;;;;6.28;3.63;;;;;;;-6.90;100.00;95569.66;5061648;28;20045;-48
2022/01/24 00:14:53;;;;;;;9.25;4.68;;;;;;;-7.03;100.00;95571.44;5063288;28;20055;-48
2022/01/24 00:27:26;;;;;;;17.17;6.55;;;;;;;-6.98;100.00;95592.19;5066315;28;20510;-47
2022/01/24 00:29:53;;;;;;;7.93;4.53;;;;;;;-6.95;100.00;95586.88;5065404;28;20055;-49
2022/01/24 00:32:20;;;;;;;15.75;8.80;;;;;;;-6.95;100.00;95597.03;5064035;28;20604;-48
2022/01/24 00:34:46;;;;;;;6.28;3.95;;;;;;;-6.89;100.00;95594.09;5063845;28;20048;-48
2022/01/24 00:37:13;;;;;;;8.07;4.43;;;;;;;-6.86;100.00;95590.53;5062434;28;20041;-51
2022/01/24 00:39:40;;;;;;;8.73;5.78;;;;;;;-6.84;100.00;95586.97;5063189;28;20041;-49
2022/01/24 00:42:21;;;;;;;8.80;4.78;;;;;;;-6.79;100.00;95591.72;5062487;28;20060;-50
2022/01/24 00:45:04;;;;;;;11.90;6.03;;;;;;;-6.80;100.00;95590.91;5066003;28;20833;-48
2022/01/24 00:56:05;;;;;;;8.00;4.57;;;;;;;-6.90;100.00;95607.66;5067027;28;20044;-47
2022/01/24 00:58:32;;;;;;;12.57;7.70;;;;;;;-6.90;100.00;95599.25;5062095;28;20051;-48
2022/01/24 01:00:59;;;;;;;12.80;6.03;;;;;;;-6.84;100.00;95604.72;5064585;28;20414;-49
2022/01/24 01:03:27;;;;;;;11.43;7.43;;;;;;;-6.81;100.00;95604.47;5064178;28;20044;-48
2022/01/24 01:19:08;;;;;;;6.78;3.83;;;;;;;-6.87;100.00;95589.72;5062450;28;20049;-50
2022/01/24 01:21:35;;;;;;;8.00;5.07;;;;;;;-6.88;100.00;95589.81;5061924;28;20055;-49
2022/01/24 01:24:02;;;;;;;9.45;3.97;;;;;;;-6.96;100.00;95580.22;5065138;28;20045;-51
2022/01/24 01:26:38;;;;;;;5.60;3.25;;;;;;;-6.92;100.00;95591.75;5065070;28;20041;-48
2022/01/24 01:29:14;;;;;;;5.82;3.78;;;;;;;-6.90;100.00;95595.00;5064247;28;20456;-48
2022/01/24 01:35:03;;;;;;;7.03;3.92;;;;;;;-7.02;100.00;95580.63;5061302;28;20037;-50
2022/01/24 01:55:47;;;;;;;3.38;2.60;;;;;;;-6.94;100.00;95593.59;5062113;28;20040;-49
2022/01/24 01:58:20;;;;;;;6.40;3.40;;;;;;;-7.01;100.00;95588.13;5063245;28;20147;-48
2022/01/24 02:00:58;;;;;;;6.90;4.45;;;;;;;-7.11;100.00;95582.88;5063134;28;20054;-47
2022/01/24 02:03:26;;;;;;;6.93;3.63;;;;;;;-7.12;100.00;95591.38;5061865;28;20429;-49
2022/01/24 02:05:54;;;;;;;9.98;3.85;;;;;;;-7.12;100.00;95591.38;5063154;28;20461;-47
2022/01/24 02:08:22;;;;;;;9.73;3.67;;;;;;;-7.11;100.00;95592.22;5060827;28;20040;-48
2022/01/24 02:10:49;;;;;;;9.60;5.32;;;;;;;-7.20;100.00;95586.03;5065417;28;20067;-51
2022/01/24 02:13:16;;;;;;;6.22;4.45;;;;;;;-7.22;100.00;95595.47;5062576;28;20525;-48
2022/01/24 02:15:59;;;;;;;7.43;4.60;;;;;;;-7.24;100.00;95587.13;5062085;28;20521;-49
2022/01/24 02:18:42;;;;;;;9.75;5.90;;;;;;;-7.28;100.00;95590.78;5065548;28;20041;-48
2022/01/24 02:21:42;;;;;;;7.57;4.30;;;;;;;-7.32;100.00;95579.25;5062001;28;21164;-49
2022/01/24 02:24:12;;;;;;;11.68;3.45;;;;;;;-7.36;100.00;95590.50;5060128;28;20079;-48
2022/01/24 02:26:40;;;;;;;7.95;4.75;;;;;;;-7.40;100.00;95596.66;5060892;28;20159;-48
2022/01/24 02:31:42;;;;;;;12.43;6.65;;;;;;;-7.44;100.00;95605.38;5061375;28;20049;-48
2022/01/24 02:34:30;;;;;;;7.43;5.38;;;;;;;-7.48;100.00;95607.31;5060020;28;20044;-47
2022/01/24 02:37:00;;;;;;;5.15;3.60;;;;;;;-7.59;100.00;95602.16;5060782;28;20037;-48
2022/01/24 02:51:05;;;;;;;9.35;5.28;;;;;;;-7.42;100.00;95623.81;5061096;28;20065;-47
2022/01/24 02:53:13;;;;;;;10.25;4.55;;;;;;;-7.39;100.00;95623.63;5060287;28;20053;-47
2022/01/24 02:55:40;;;;;;;11.10;6.05;;;;;;;-7.34;100.00;95631.72;5059894;28;20052;-48
2022/01/24 02:58:07;;;;;;;14.13;7.18;;;;;;;-7.35;100.00;95625.03;5062673;28;20048;-49
2022/01/24 03:00:35;;;;;;;19.42;8.88;;;;;;;-7.22;100.00;95638.50;5063697;28;20048;-49
2022/01/24 03:03:03;;;;;;;11.57;7.70;;;;;;;-7.25;100.00;95633.63;5060175;28;20063;-48
2022/01/24 03:05:31;;;;;;;7.10;5.50;;;;;;;-7.17;100.00;95643.25;5067334;28;20454;-48
2022/01/24 03:07:58;;;;;;;16.52;6.35;;;;;;;-7.03;100.00;95660.84;5066388;28;20044;-48
2022/01/24 03:10:29;;;;;;;13.80;6.68;;;;;;;-7.01;100.00;95653.16;5062585;28;20056;-49
2022/01/24 03:13:09;;;;;;;13.55;7.30;;;;;;;-6.94;100.00;95664.50;5061506;28;20438;-50
2022/01/24 03:15:38;;;;;;;8.93;5.88;;;;;;;-6.89;100.00;95676.88;5065114;28;20521;-51
2022/01/24 03:18:06;;;;;;;15.52;6.47;;;;;;;-6.82;100.00;95663.69;5061349;28;20044;-48
2022/01/24 03:20:34;;;;;;;12.30;6.28;;;;;;;-6.78;100.00;95670.16;5060922;28;20155;-49
2022/01/24 03:23:01;;;;;;;9.38;6.35;;;;;;;-6.73;100.00;95678.25;5063137;28;20044;-51
2022/01/24 03:25:28;;;;;;;17.75;8.57;;;;;;;-6.63;100.00;95675.91;5062971;28;20044;-48
2022/01/24 03:27:55;;;;;;;14.27;7.80;;;;;;;-6.56;100.00;95673.75;5059524;28;20549;-49
2022/01/24 03:30:23;;;;;;;12.82;6.75;;;;;;;-6.54;100.00;95677.00;5059888;28;20058;-49
2022/01/24 03:32:51;;;;;;;15.07;8.23;;;;;;;-6.50;100.00;95675.88;5060628;28;20044;-51
2022/01/24 03:35:18;;;;;;;13.68;7.32;;;;;;;-6.48;100.00;95681.66;5060409;28;20498;-49
2022/01/24 03:37:45;;;;;;;13.80;7.60;;;;;;;-6.38;100.00;95685.16;5060216;28;20058;-48
2022/01/24 03:40:12;;;;;;;12.88;6.65;;;;;;;-6.33;100.00;95689.13;5059831;28;20429;-49
2022/01/24 03:42:39;;;;;;;12.23;6.68;;;;;;;-6.35;100.00;95687.50;5060531;28;20072;-47
2022/01/24 03:45:09;;;;;;;17.73;7.53;;;;;;;-6.35;100.00;95692.56;5062377;28;20045;-49
2022/01/24 03:50:06;;;;;;;14.88;7.68;;;;;;;-6.39;100.00;95706.38;5058694;28;20040;-49
2022/01/24 03:52:33;;;;;;;9.73;5.80;;;;;;;-6.40;100.00;95694.59;5060063;28;20033;-47
2022/01/24 03:55:01;;;;;;;12.82;5.93;;;;;;;-6.32;100.00;95705.94;5059437;28;20090;-49
2022/01/24 03:57:28;;;;;;;10.77;5.75;;;;;;;-6.28;100.00;95707.34;5059435;28;20044;-49
2022/01/24 03:59:55;;;;;;;11.75;7.10;;;;;;;-6.25;100.00;95702.06;5063426;28;22103;-49
2022/01/24 04:02:27;;;;;;;16.25;8.20;;;;;;;-6.17;100.00;95704.91;5067037;28;20454;-48
2022/01/24 04:04:54;;;;;;;10.15;5.80;;;;;;;-6.18;100.00;95708.34;5066934;28;20037;-48
2022/01/24 04:07:21;;;;;;;14.85;7.55;;;;;;;-6.21;100.00;95703.47;5069083;28;20039;-48
2022/01/24 04:09:49;;;;;;;14.75;7.70;;;;;;;-6.17;100.00;95712.50;5063044;28;20506;-47
2022/01/24 04:12:16;;;;;;;13.30;6.72;;;;;;;-6.21;100.00;95718.69;5062961;28;20053;-48
2022/01/24 04:22:26;;;;;;;17.88;7.47;;;;;;;-6.37;100.00;95719.75;5064780;28;20059;-49
2022/01/24 04:25:01;;;;;;;18.83;11.75;;;;;;;-6.41;100.00;95718.34;5064057;28;20037;-48
2022/01/24 04:27:29;;;;;;;20.52;9.50;;;;;;;-6.43;100.00;95730.28;5064443;28;20545;-49
2022/01/24 04:29:56;;;;;;;17.80;9.23;;;;;;;-6.47;100.00;95723.81;5064109;28;20058;-49
2022/01/24 04:32:23;;;;;;;11.70;6.88;;;;;;;-6.41;100.00;95733.56;5065363;28;20552;-49
2022/01/24 04:34:50;;;;;;;20.00;8.15;;;;;;;-6.42;100.00;95726.84;5066763;28;20101;-49
2022/01/24 04:37:17;;;;;;;11.00;4.75;;;;;;;-6.57;100.00;95717.78;5066436;28;20526;-47
2022/01/24 04:39:44;;;;;;;7.05;3.75;;;;;;;-6.49;100.00;95730.72;5063905;28;20114;-48
2022/01/24 04:42:17;;;;;;;7.85;4.97;;;;;;;-6.49;100.00;95730.72;5066263;28;20051;-47
2022/01/24 04:55:05;;;;;;;5.07;2.83;;;;;;;-6.45;100.00;95742.25;5064577;28;20094;-47
2022/01/24 04:57:32;;;;;;;6.05;3.85;;;;;;;-6.51;100.00;95742.69;5063830;28;20058;-48
2022/01/24 05:00:02;;;;;;;9.23;3.63;;;;;;;-6.59;100.00;95750.00;5062277;28;20033;-48
2022/01/24 05:02:29;;;;;;;8.98;4.32;;;;;;;-6.67;100.00;95752.25;5063997;28;20045;-48
2022/01/24 05:04:56;;;;;;;9.85;5.07;;;;;;;-6.63;100.00;95768.84;5062729;28;20049;-52
2022/01/24 05:07:24;;;;;;;7.25;4.57;;;;;;;-6.67;100.00;95767.44;5066220;28;20048;-48
2022/01/24 05:10:05;;;;;;;8.35;5.35;;;;;;;-6.75;100.00;95771.28;5067704;28;20111;-51
2022/01/24 05:23:52;;;;;;;2.33;1.02;;;;;;;-6.78;100.00;95798.56;5019051;28;20514;-48
2022/01/24 05:26:19;;;;;;;3.65;1.92;;;;;;;-6.79;100.00;95797.75;5051901;28;20063;-48
2022/01/24 05:28:45;;;;;;;4.72;1.83;;;;;;;-6.80;100.00;95803.72;5057092;28;20045;-49
2022/01/24 05:31:13;;;;;;;4.35;2.88;;;;;;;-6.85;100.00;95800.66;5062358;28;20650;-50
2022/01/24 05:33:40;;;;;;;5.30;3.47;;;;;;;-6.82;100.00;95815.69;5060059;28;20052;-47
2022/01/24 05:36:07;;;;;;;4.25;2.25;;;;;;;-6.75;100.00;95821.97;5061689;28;20039;-48
2022/01/24 05:38:34;;;;;;;2.67;1.27;;;;;;;-6.76;99.71;95825.41;5059782;28;20052;-49
2022/01/24 05:41:01;;;;;;;3.05;2.08;;;;;;;-6.78;97.47;95827.22;5058370;28;20127;-49
2022/01/24 05:43:28;;;;;;;3.70;1.77;;;;;;;-6.79;96.80;95828.16;5056176;28;20041;-49
2022/01/24 05:45:55;;;;;;;4.30;2.25;;;;;;;-6.71;96.61;95826.84;5061880;28;20495;-52
2022/01/24 05:48:22;;;;;;;4.05;2.40;;;;;;;-6.69;96.79;95830.09;5058313;28;20106;-48
2022/01/24 05:50:49;;;;;;;3.38;1.75;;;;;;;-6.78;96.91;95827.22;5059106;28;20055;-49
2022/01/24 05:53:16;;;;;;;3.80;1.73;;;;;;;-6.68;97.06;95837.59;5059710;28;20041;-50
2022/01/24 05:55:42;;;;;;;6.50;4.05;;;;;;;-6.59;95.82;95836.16;5061478;28;20536;-49
2022/01/24 05:58:09;;;;;;;9.88;4.07;;;;;;;-6.50;95.27;95835.53;5061603;28;22084;-48
2022/01/24 06:00:36;;;;;;;7.28;4.20;;;;;;;-6.45;94.82;95843.66;5060525;28;20048;-48
2022/01/24 06:03:03;;;;;;;44.90;21.67;;;;;;;-6.42;92.72;95851.06;5061097;28;20048;-47
2022/01/24 06:05:30;;;;;;;15.77;8.27;;;;;;;-6.38;91.89;95849.94;5060664;28;20817;-50
2022/01/24 06:07:57;;;;;;;14.48;8.07;;;;;;;-6.26;92.25;95857.66;5059856;28;20059;-47
2022/01/24 06:10:24;;;;;;;28.83;15.68;;;;;;;-6.16;92.28;95873.88;5059866;28;20514;-47
2022/01/24 06:12:51;;;;;;;62.10;27.50;;;;;;;-6.10;93.49;95870.13;5062642;28;20139;-47
2022/01/24 06:15:18;;;;;;;15.57;8.35;;;;;;;-6.00;95.23;95879.53;5061310;28;20037;-48
2022/01/24 06:17:45;;;;;;;3.88;1.35;;;;;;;-6.02;91.17;95876.31;5064526;28;20044;-48
2022/01/24 06:20:12;;;;;;;5.97;3.15;;;;;;;-6.10;87.73;95881.09;5063137;28;20048;-48
2022/01/24 06:22:40;;;;;;;5.38;3.35;;;;;;;-6.04;88.95;95888.28;5059107;28;20964;-50
2022/01/24 06:25:09;;;;;;;4.80;3.00;;;;;;;-5.96;89.45;95896.19;5059527;28;20651;-49
2022/01/24 06:27:41;;;;;;;;;;;;;;;-5.88;89.84;95897.38;5061918;28;20546;-51
2022/01/24 06:30:08;;;;;;;3.80;2.13;;;;;;;-5.90;89.31;95899.22;5058636;28;19921;-48
2022/01/24 06:32:38;;;;;;;3.75;2.50;;;;;;;-5.98;89.47;95887.88;5057655;28;20492;-49
2022/01/24 06:35:06;;;;;;;6.55;3.50;;;;;;;-5.87;89.03;95899.81;5058474;28;20045;-50
2022/01/24 06:37:33;;;;;;;6.70;2.97;;;;;;;-5.78;89.22;95898.34;5048964;28;20466;-47
2022/01/24 06:40:00;;;;;;;11.43;6.78;;;;;;;-5.53;90.28;95906.84;5057300;28;20059;-48
2022/01/24 06:42:27;;;;;;;12.32;5.75;;;;;;;-5.39;90.23;95914.31;5058859;28;20047;-47
2022/01/24 06:44:54;;;;;;;11.35;6.57;;;;;;;-5.16;89.58;95915.28;5057454;28;20048;-48
2022/01/24 06:47:22;;;;;;;15.20;5.95;;;;;;;-4.92;88.55;95924.63;5061370;28;20044;-48
2022/01/24 06:49:50;;;;;;;16.08;6.85;;;;;;;-4.66;89.24;95925.34;5055801;28;20123;-48
2022/01/24 06:52:17;;;;;;;13.70;7.30;;;;;;;-4.40;88.69;95922.63;5057294;28;20045;-52
2022/01/24 06:54:44;;;;;;;13.93;6.20;;;;;;;-4.14;87.83;95931.72;5061849;28;20106;-47
2022/01/24 06:57:13;;;;;;;15.35;8.00;;;;;;;-3.94;85.17;95934.53;5060795;28;20040;-50
2022/01/24 06:59:41;;;;;;;13.60;8.15;;;;;;;-3.74;84.75;95935.56;5058962;28;20132;-50
2022/01/24 07:02:09;;;;;;;13.52;6.57;;;;;;;-3.44;85.42;95937.50;5061076;28;20066;-49
2022/01/24 07:04:39;;;;;;;35.28;12.45;;;;;;;-3.37;83.00;95936.13;5058273;28;20053;-48
2022/01/24 07:07:07;;;;;;;36.15;17.77;;;;;;;-3.40;82.57;95941.47;5056071;28;20098;-49
2022/01/24 07:09:34;;;;;;;27.33;15.30;;;;;;;-3.35;82.81;95930.91;5055585;28;20060;-50
2022/01/24 07:12:02;;;;;;;25.58;14.35;;;;;;;-3.20;83.75;95945.03;5057247;28;20426;-48
2022/01/24 07:14:29;;;;;;;27.65;15.50;;;;;;;-2.96;82.61;95944.84;5053963;28;20156;-47
2022/01/24 07:19:29;;;;;;;13.02;7.80;;;;;;;-2.83;79.29;95946.44;5055363;28;20063;-49
2022/01/24 07:21:57;;;;;;;9.65;5.00;;;;;;;-2.78;77.85;95949.44;5058483;28;20476;-48
2022/01/24 07:24:25;;;;;;;8.68;3.80;;;;;;;-2.80;77.14;95946.22;5060682;28;20129;-48
2022/01/24 07:26:52;;;;;;;6.60;3.33;;;;;;;-2.82;76.94;95958.28;5060460;28;20708;-47
2022/01/24 07:29:20;;;;;;;5.53;3.28;;;;;;;-2.83;78.27;95961.75;5059682;28;20497;-47
2022/01/24 07:31:47;;;;;;;5.38;3.40;;;;;;;-2.81;76.83;95962.44;5069274;28;20048;-50
2022/01/24 07:34:15;;;;;;;19.77;9.23;;;;;;;-2.69;77.84;95964.03;5059181;28;20045;-48
2022/01/24 07:36:42;;;;;;;38.80;15.77;;;;;;;-2.71;76.77;95973.53;5060086;28;20123;-48
2022/01/24 07:39:11;;;;;;;35.53;13.02;;;;;;;-2.91;76.68;95986.09;5061915;28;20071;-48
2022/01/24 07:41:44;;;;;;;20.90;9.20;;;;;;;-2.92;77.11;95988.75;5064798;28;20040;-48
2022/01/24 07:44:17;;;;;;;15.88;8.77;;;;;;;-3.03;76.77;95992.13;5060963;28;20114;-50
2022/01/24 07:46:44;;;;;;;13.63;7.05;;;;;;;-3.13;77.92;95991.25;5058484;28;20050;-51
2022/01/24 07:49:12;;;;;;;15.02;6.40;;;;;;;-3.20;77.88;95995.19;5062291;28;20055;-50
2022/01/24 07:51:41;;;;;;;11.32;5.57;;;;;;;-3.13;79.32;95991.25;5058812;28;20098;-48
2022/01/24 07:54:11;;;;;;;18.38;9.02;;;;;;;-2.99;79.79;95988.44;5059042;28;20525;-49
2022/01/24 07:56:39;;;;;;;10.57;5.10;;;;;;;-3.06;78.19;95997.50;5064775;28;20049;-49
2022/01/24 07:59:06;;;;;;;9.38;5.60;;;;;;;-2.97;79.46;95998.50;5061507;28;20055;-49
2022/01/24 08:01:33;;;;;;;10.13;3.97;;;;;;;-3.01;79.40;95995.38;5062051;28;20061;-49
2022/01/24 08:04:00;;;;;;;9.02;4.30;;;;;;;-3.29;79.50;95982.22;5061673;28;20041;-50
2022/01/24 08:06:28;;;;;;;15.48;7.55;;;;;;;-3.19;80.90;96004.44;5058762;28;20449;-49
2022/01/24 08:08:54;;;;;;;6.25;3.47;;;;;;;-3.11;81.53;96015.69;5071708;28;20045;-51
2022/01/24 08:11:22;;;;;;;7.78;4.70;;;;;;;-3.13;81.41;96016.72;5063665;28;20088;-48
2022/01/24 08:13:51;;;;;;;19.70;6.97;;;;;;;-3.15;81.00;96018.56;5058539;28;20048;-48
2022/01/24 08:16:19;;;;;;;26.23;8.55;;;;;;;-3.23;81.52;96011.50;5057581;28;20053;-48
2022/01/24 08:18:50;;;;;;;12.38;6.47;;;;;;;-3.10;81.86;96016.47;5060979;28;20103;-47
2022/01/24 08:21:19;;;;;;;21.95;7.85;;;;;;;-2.86;80.47;96012.97;5057895;28;20056;-50
2022/01/24 08:23:46;;;;;;;19.15;8.48;;;;;;;-2.91;78.88;96021.78;5059653;28;20048;-50
2022/01/24 08:26:14;;;;;;;7.78;3.70;;;;;;;-3.00;73.73;96030.16;5059034;28;20127;-50
2022/01/24 08:28:41;;;;;;;8.07;4.78;;;;;;;-2.81;73.71;96026.19;5056956;28;20892;-48
2022/01/24 08:31:08;;;;;;;11.30;4.78;;;;;;;-2.69;75.64;96030.34;5056555;28;20037;-48
2022/01/24 08:33:35;;;;;;;10.25;5.53;;;;;;;-2.73;75.49;96028.97;5052232;28;20052;-47
2022/01/24 08:36:03;;;;;;;22.83;9.88;;;;;;;-2.67;76.49;96033.56;5054003;28;20055;-51
2022/01/24 08:38:34;;;;;;;13.10;6.35;;;;;;;-2.63;76.73;96029.88;5058825;28;20415;-47
2022/01/24 08:41:07;;;;;;;3.95;2.80;;;;;;;-2.77;76.31;96040.34;5056395;28;20058;-49
2022/01/24 08:43:57;;;;;;;6.60;2.92;;;;;;;-2.98;76.58;96046.13;5056056;28;20048;-50
2022/01/24 08:46:25;;;;;;;15.25;7.35;;;;;;;-2.95;77.99;96028.06;5066153;28;20040;-48
2022/01/24 08:48:52;;;;;;;22.50;7.40;;;;;;;-2.46;78.43;96045.59;5069125;28;20043;-50
2022/01/24 08:51:19;;;;;;;13.80;6.78;;;;;;;-2.54;76.01;96044.47;5063343;28;20055;-49
2022/01/24 08:54:03;;;;;;;8.57;5.18;;;;;;;-2.63;76.30;96034.97;5065680;28;20060;-47
2022/01/24 08:56:30;;;;;;;22.00;9.73;;;;;;;-3.09;77.90;96046.94;5061917;28;20064;-48
2022/01/24 08:58:57;;;;;;;12.35;6.75;;;;;;;-2.85;77.21;96046.00;5063405;28;20048;-49
2022/01/24 09:01:24;;;;;;;23.23;10.57;;;;;;;-2.79;76.32;96049.81;5058580;28;20048;-49
2022/01/24 09:03:51;;;;;;;13.63;7.63;;;;;;;-2.63;75.58;96052.81;5062239;28;20040;-49
2022/01/24 09:06:21;;;;;;;11.43;6.57;;;;;;;-2.20;75.01;96049.44;5063637;28;20056;-50
2022/01/24 09:08:55;;;;;;;13.30;6.32;;;;;;;-2.00;72.49;96057.25;5063100;28;20074;-52
2022/01/24 09:11:27;;;;;;;6.97;3.80;;;;;;;-2.09;72.55;96055.44;5062691;28;20063;-49
2022/01/24 09:13:55;;;;;;;7.75;4.20;;;;;;;-1.93;73.15;96050.72;5066475;28;20053;-49
2022/01/24 09:16:22;;;;;;;8.65;3.72;;;;;;;-1.61;70.61;96057.53;5063799;28;20047;-48
2022/01/24 09:18:50;;;;;;;11.23;4.20;;;;;;;-1.35;70.62;96051.09;5063187;28;20134;-49
2022/01/24 09:21:18;;;;;;;9.65;4.90;;;;;;;-1.21;71.27;96049.13;5061574;28;20041;-50
2022/01/24 09:23:45;;;;;;;10.98;3.97;;;;;;;-1.28;66.61;96037.78;5062702;28;20051;-48
2022/01/24 09:26:13;;;;;;;9.73;4.28;;;;;;;-1.17;63.66;96055.59;5060339;28;22036;-48
2022/01/24 09:28:40;;;;;;;10.43;4.18;;;;;;;-0.84;61.65;96056.28;5062231;28;20904;-47
2022/01/24 09:31:07;;;;;;;14.13;6.22;;;;;;;-0.60;62.49;96054.16;5061845;28;20055;-48
2022/01/24 09:33:34;;;;;;;5.80;3.33;;;;;;;-0.35;57.83;96057.19;5060566;28;20087;-49
2022/01/24 09:36:03;;;;;;;8.90;4.65;;;;;;;-0.48;58.71;96056.63;5062286;28;20509;-53
2022/01/24 09:38:32;;;;;;;8.80;4.75;;;;;;;-0.45;56.32;96056.34;5063178;28;20044;-49
2022/01/24 09:41:02;;;;;;;12.15;4.63;;;;;;;-0.64;57.66;96047.69;5064571;28;20056;-48
2022/01/24 09:43:29;;;;;;;13.23;6.00;;;;;;;-0.72;57.42;96045.00;5066598;28;20045;-48
2022/01/24 09:45:57;;;;;;;10.52;6.13;;;;;;;-0.63;57.30;96051.91;5063003;28;20051;-50
2022/01/24 09:48:25;;;;;;;9.13;3.95;;;;;;;-0.78;56.70;96048.88;5062530;28;20502;-51
2022/01/24 09:50:53;;;;;;;8.50;3.95;;;;;;;-0.73;56.38;96042.56;5061842;28;20173;-49
2022/01/24 09:53:22;;;;;;;9.95;5.35;;;;;;;-0.91;55.96;96050.06;5062123;28;20051;-51
2022/01/24 09:55:50;;;;;;;21.50;10.23;;;;;;;-0.93;57.06;96051.94;5063533;28;20064;-47
2022/01/24 09:58:19;;;;;;;12.55;6.40;;;;;;;-0.58;55.18;96046.38;5061029;28;20052;-48
2022/01/24 10:00:47;;;;;;;18.73;9.23;;;;;;;-0.70;57.16;96040.56;5062685;28;20040;-51
2022/01/24 10:03:14;;;;;;;7.38;4.65;;;;;;;-0.82;55.25;96039.84;5060456;28;20134;-50
2022/01/24 10:06:01;;;;;;;15.95;6.97;;;;;;;-1.03;57.57;96032.22;5057426;28;20044;-48
2022/01/24 10:08:30;;;;;;;10.30;4.97;;;;;;;-1.19;57.37;96032.72;5064812;28;20044;-48
2022/01/24 10:11:01;;;;;;;8.93;3.78;;;;;;;-1.23;57.83;96031.34;5061696;28;20044;-48
2022/01/24 10:16:43;;;;;;;8.55;3.75;;;;;;;-1.08;59.89;96034.41;5057866;28;20051;-48
2022/01/24 10:19:14;;;;;;;8.88;4.40;;;;;;;-0.74;61.33;96039.19;5056208;28;20533;-48
2022/01/24 10:22:04;;;;;;;11.27;4.38;;;;;;;-0.63;59.31;96033.97;5055165;28;20056;-51
2022/01/24 10:24:42;;;;;;;11.02;4.70;;;;;;;-0.55;59.17;96040.19;5061085;28;20139;-50
2022/01/24 10:27:18;;;;;;;11.38;4.75;;;;;;;-0.85;60.49;96039.28;5057209;28;20044;-47
2022/01/24 10:29:54;;;;;;;8.35;3.70;;;;;;;-1.21;61.52;96044.00;5052675;28;20056;-47
2022/01/24 10:32:33;;;;;;;9.65;4.38;;;;;;;-1.17;62.46;96041.09;5052828;28;20498;-48
2022/01/24 10:35:45;;;;;;;5.78;3.55;;;;;;;-1.45;61.99;96054.53;5054521;28;20040;-47
2022/01/24 10:38:42;;;;;;;25.63;10.35;;;;;;;-1.54;64.65;96056.09;4977157;28;20509;-48
2022/01/24 10:43:42;;;;;;;7.72;4.70;;;;;;;-1.39;63.29;96051.44;5039118;28;20052;-48
2022/01/24 10:46:10;;;;;;;12.48;4.75;;;;;;;-1.47;60.64;96054.66;5057779;28;20075;-50
2022/01/24 10:48:44;;;;;;;39.95;12.60;;;;;;;-1.38;63.44;96043.66;5053543;28;20045;-49
2022/01/24 10:51:16;;;;;;;15.50;6.20;;;;;;;-1.02;63.10;96038.97;5055499;28;20064;-49
2022/01/24 10:53:47;;;;;;;9.32;3.92;;;;;;;-0.82;61.58;96049.28;5056847;28;20139;-51
2022/01/24 10:56:28;;;;;;;14.18;5.93;;;;;;;-0.72;60.79;96037.34;5055687;28;20103;-50
2022/01/24 10:59:06;;;;;;;16.90;8.40;;;;;;;-0.55;58.83;96040.19;5052622;28;20041;-47
2022/01/24 11:01:34;;;;;;;11.45;4.85;;;;;;;-0.62;57.72;96040.69;5054891;28;20124;-49
2022/01/24 11:04:08;;;;;;;10.55;4.47;;;;;;;-0.38;57.69;96047.19;5049689;28;20040;-48
2022/01/24 11:06:40;;;;;;;11.30;6.65;;;;;;;-0.67;57.97;96037.72;5054573;28;20044;-49
2022/01/24 11:09:23;;;;;;;11.23;5.18;;;;;;;-0.20;58.68;96049.91;5053645;28;20498;-47
2022/01/24 11:11:59;;;;;;;11.02;5.50;;;;;;;0.00;58.58;96045.63;5055845;28;20044;-48
2022/01/24 11:14:28;;;;;;;3.40;1.90;;;;;;;-0.87;54.18;96041.97;5058715;28;20075;-48
2022/01/24 11:16:58;;;;;;;5.97;2.35;;;;;;;-0.82;54.56;96050.06;5057598;28;20043;-48
2022/01/24 11:19:46;;;;;;;12.27;6.15;;;;;;;-0.33;53.84;96050.19;5054984;28;20060;-47
2022/01/24 11:22:20;;;;;;;10.68;4.18;;;;;;;0.10;54.81;96043.84;5055721;28;20048;-49
2022/01/24 11:25:00;;;;;;;10.43;4.82;;;;;;;0.25;53.87;96046.00;5057201;28;20484;-50
2022/01/24 11:27:39;;;;;;;9.60;4.97;;;;;;;-0.34;54.51;96048.56;5051685;28;20043;-48
2022/01/24 11:30:11;;;;;;;7.07;3.63;;;;;;;-0.28;53.00;96053.16;5053108;28;20437;-48
2022/01/24 11:32:47;;;;;;;9.00;4.32;;;;;;;-0.44;52.24;96055.44;5053276;28;20119;-48
2022/01/24 11:35:43;;;;;;;8.77;4.63;;;;;;;-0.35;54.66;96046.94;5054442;28;20051;-47
2022/01/24 11:38:26;;;;;;;;;;;;;;;-0.03;55.78;96051.03;5053929;28;20037;-48
2022/01/24 11:41:13;;;;;;;8.93;4.43;;;;;;;0.40;55.83;96036.94;5053993;28;19924;-48
2022/01/24 11:43:43;;;;;;;15.05;5.70;;;;;;;0.72;54.96;96030.66;5055112;28;20041;-49
2022/01/24 11:46:34;;;;;;;9.95;4.93;;;;;;;0.83;51.22;96048.44;5056131;28;20099;-47
2022/01/24 11:49:15;;;;;;;5.78;3.33;;;;;;;1.06;52.47;96053.22;5057360;28;20094;-48
2022/01/24 11:51:47;;;;;;;7.78;4.35;;;;;;;1.18;49.64;96057.22;5055815;28;20048;-48
2022/01/24 11:54:44;;;;;;;8.13;4.40;;;;;;;0.67;53.49;96063.63;5057411;28;20071;-48
2022/01/24 11:57:20;;;;;;;10.00;5.00;;;;;;;0.98;51.90;96060.81;5057511;28;20041;-47
2022/01/24 11:59:47;;;;;;;6.07;2.97;;;;;;;1.44;49.98;96061.66;5054106;28;20040;-48
2022/01/24 12:02:20;;;;;;;8.43;4.15;;;;;;;1.64;46.57;96068.34;5054997;28;20504;-48
2022/01/24 12:04:53;;;;;;;5.57;3.83;;;;;;;1.60;47.18;96058.47;5055406;28;20036;-48
2022/01/24 12:07:24;;;;;;;6.28;3.70;;;;;;;1.10;45.77;96059.69;5051508;28;20048;-48
2022/01/24 12:10:15;;;;;;;9.45;4.35;;;;;;;0.15;51.98;96054.50;5052040;28;20052;-48
2022/01/24 12:12:50;;;;;;;7.53;3.30;;;;;;;0.09;50.83;96037.13;5051219;28;20427;-48
2022/01/24 12:15:39;;;;;;;10.55;4.45;;;;;;;0.23;50.13;96050.47;5054067;28;20062;-48
2022/01/24 12:18:07;;;;;;;9.55;5.57;;;;;;;0.10;50.87;96046.41;5055054;28;20040;-48
2022/01/24 12:20:36;;;;;;;6.05;3.50;;;;;;;-0.31;50.05;96043.16;5056242;28;20063;-47
2022/01/24 12:23:19;;;;;;;12.20;6.47;;;;;;;-0.83;51.83;96045.09;5058925;28;20106;-49
2022/01/24 12:26:05;;;;;;;9.88;6.15;;;;;;;-1.28;52.54;96043.69;5059569;28;20079;-48
2022/01/24 12:28:43;;;;;;;7.82;3.42;;;;;;;-1.75;55.88;96041.59;5060740;28;20032;-49
2022/01/24 12:31:13;;;;;;;17.05;4.95;;;;;;;-2.10;57.13;96053.81;5061098;28;20051;-53
2022/01/24 12:33:55;;;;;;;5.25;2.42;;;;;;;-2.24;56.85;96055.72;5061947;28;20057;-49
2022/01/24 12:36:50;;;;;;;4.90;3.25;;;;;;;-2.29;56.89;96060.38;5058480;28;20170;-47
2022/01/24 12:39:22;;;;;;;;;;;;;;;-2.22;58.66;96053.84;5063455;28;20045;-52
2022/01/24 12:42:00;;;;;;;4.85;2.72;;;;;;;-2.18;58.26;96059.53;5060890;28;19924;-46
2022/01/24 12:47:17;;;;;;;8.23;3.60;;;;;;;-2.50;60.56;96063.69;5060415;28;20040;-46
2022/01/24 12:49:46;;;;;;;5.75;3.22;;;;;;;-2.26;58.24;96072.91;5060082;28;20048;-49
2022/01/24 12:52:20;;;;;;;8.82;5.10;;;;;;;-2.07;58.42;96066.31;5056982;28;20051;-47
2022/01/24 12:54:50;;;;;;;15.85;7.00;;;;;;;-1.38;57.73;96059.00;5060257;28;20040;-47
2022/01/24 12:57:19;;;;;;;5.25;2.28;;;;;;;-0.86;52.72;96053.03;5056713;28;20518;-47
2022/01/24 12:59:55;;;;;;;8.20;3.85;;;;;;;-1.13;55.10;96066.38;5062193;28;20438;-47
2022/01/24 13:02:25;;;;;;;6.30;2.85;;;;;;;-1.47;54.38;96062.31;5062495;28;20052;-46
2022/01/24 13:05:03;;;;;;;22.52;8.73;;;;;;;-1.88;56.42;96061.38;5060589;28;20043;-50
2022/01/24 13:07:31;;;;;;;10.57;4.53;;;;;;;-2.14;56.62;96077.03;5062173;28;20459;-49
2022/01/24 13:10:12;;;;;;;13.85;4.35;;;;;;;-2.12;59.33;96069.25;5058380;28;20048;-48
2022/01/24 13:12:40;;;;;;;7.00;4.10;;;;;;;-1.83;59.00;96066.94;5059685;28;20056;-50
2022/01/24 13:15:21;;;;;;;9.45;4.70;;;;;;;-1.39;58.52;96062.50;5062621;28;20098;-47
2022/01/24 13:21:11;;;;;;;10.63;4.80;;;;;;;-0.80;52.50;96067.84;5023092;28;20052;-47
2022/01/24 13:23:43;;;;;;;28.75;10.02;;;;;;;-0.57;52.65;96062.56;5025036;28;20045;-47
2022/01/24 13:26:11;;;;;;;8.38;3.85;;;;;;;-0.26;51.34;96066.63;5051411;28;20061;-49
2022/01/24 13:28:39;;;;;;;13.63;6.18;;;;;;;-0.30;55.33;96070.41;5061593;28;20060;-47
2022/01/24 13:31:07;;;;;;;14.55;5.85;;;;;;;-0.56;52.94;96069.28;5062833;28;20452;-48
2022/01/24 13:33:39;;;;;;;11.00;4.47;;;;;;;-0.87;53.62;96079.53;5056910;28;20057;-50
2022/01/24 13:36:08;;;;;;;16.52;7.55;;;;;;;-1.41;56.54;96084.81;5064469;28;20078;-49
2022/01/24 13:38:41;;;;;;;9.70;4.93;;;;;;;-2.23;58.70;96082.88;5063685;28;20215;-47
2022/01/24 13:41:23;;;;;;;29.52;13.05;;;;;;;-2.68;60.01;96093.19;5065326;28;20090;-48